Skip Navigation Links
NOAA logo - Click to go to the NOAA homepage
NOAA's National Weather Service
Alaska Aviation Weather Unit
  NWS logo - Click to go to the NWS homepage
Left Navbar Graphic     12 AKDT = 20 GMT

   
NOAA is celebrating 200 years of science, service, and stewardship. Visit the NOAA 200th celebration Web site to learn more.
USA.gov is the U.S. Government's official Web portal to all Federal, state and local government Web resources and services.
Facebook
NWS on Facebook

Important Change Regarding the AAWU Web Presence

 

Over the last several months, the AAWU has been working to navigate its webpages to a nationally supported server. Security, as well as other needs, have necessitated the change.  We have been given an extension for the site changeover while we diligently work at addressing feedback received. As of July 14, 2017, aawu.arh.noaa.gov will be discontinued. The new AAWU web address is weather.gov/aawu. It is now live and will run in-parallel with the old site until it is discontinued on July 14, 2017. Please continue to send any feedback or questions regarding the new webpages to nws.ar.aawu.webauthors@noaa.gov.  Thank you for your patience during this time of transition.
AAWU Home :: Display TAF Add Bookmark
METAR PAPN 251456Z AUTO 25009KT 7SM -RA BKN005 OVC019 12/11 A3004
 RMK AO2 SLP175 P0002 60005 T01170111 56005=

METAR PAPN 251556Z AUTO 23007KT 10SM -RA BKN005 OVC026 12/11 A3003
 RMK AO2 SLP172 P0000 T01170111=

SPECI PAPN 251653Z AUTO 22006KT 10SM -RA OVC007 12/11 A3003 RMK AO2
 CIG 005V010 P0000=

METAR PAPN 251656Z AUTO 22006KT 10SM -RA OVC007 12/11 A3003 RMK AO2
 CIG 005V010 SLP170 P0000 T01220111=

METAR PAPN 251856Z AUTO 23010KT 10SM BKN007 OVC019 13/12 A3002 RMK
 AO2 CIG 006V012 SLP169 T01280117=

METAR PAPN 251956Z AUTO 24009KT 10SM BKN009 OVC015 13/12 A3002 RMK
 AO2 CIG 008V012 SLP167 P0001 T01330117=

SPECI PAPN 252005Z AUTO 23011KT 10SM OVC011 14/12 A3002 RMK AO2=


NOAA's National Weather Service
Alaska Aviation Weather Unit
6930 Sand Lake Road
Anchorage, AK 99502-1845
Disclaimer
Credits
Glossary
Privacy Policy
About Us
Career Opportunities
Contact AAWU Internet Services Site last modified: April, 17th 2012